KDIK/DIK METAR and TAF weather

Enter ICAO airport designator
Station Type Date Time Source
KDIK METAR 2019/10/15 18:27 UTC NOAA

KDIK 151827Z AUTO 32015G22KT 10SM BKN021 06/00 A3018 RMK AO2 T00610000


Station Type Date Time Source
KDIK Decoded METAR 2019/10/15 18:27 UTC NOAA

THEODORE ROOSEVELT REGIONAL, ND, United States (KDIK) 46-48N 102-48W 788M
Oct 15, 2019 - 02:27 PM EDT / 2019.10.15 1827 UTC
Wind: from the NW (320 degrees) at 17 MPH (15 KT) gusting to 25 MPH (22 KT):0
Visibility: 10 mile(s):0
Sky conditions: mostly cloudy
Temperature: 43.0 F (6.1 C)
Dew Point: 32.0 F (0.0 C)
Relative Humidity: 64%
Pressure (altimeter): 30.18 in. Hg (1022 hPa)
ob: KDIK 151827Z AUTO 32015G22KT 10SM BKN021 06/00 A3018 RMK AO2 T00610000
cycle: 18

Station Type Date Time Source
KDIK TAF 2019/10/15 18:30 UTC NOAA

TAF KDIK 151729Z 1518/1618 31015G23KT P6SM OVC010
TEMPO 1518/1521 SCT015 SCT020 BKN035
FM152100 31010KT P6SM BKN035
FM160000 32005KT P6SM SCT070
FM160800 17005KT P6SM BKN250
FM161700 19012KT P6SM SCT150

Example: see airport list